Time;durP1;ratioP1;P1;durP2;ratioP2;P2;SDS_P1;SDS_P2;PMS_P1;PMS_P2;Temp;Humidity;BMP_temperature;BMP_pressure;BME280_temperature;BME280_humidity;BME280_pressure;Samples;Min_cycle;Max_cycle;Signal;HPM_P1;HPM_P2
2022/01/27 04:33:37;;;;;;;32.57;17.90;;;;;;;5.11;56.55;100023.50;6953966;28;20219;-84
2022/01/27 04:36:59;;;;;;;36.17;18.67;;;;;;;5.30;56.48;100009.28;6927190;28;20838;-83
2022/01/27 04:40:26;;;;;;;36.13;20.60;;;;;;;4.82;56.06;99953.19;6925754;28;20228;-84
2022/01/27 04:43:54;;;;;;;33.40;18.37;;;;;;;4.74;56.79;99990.44;6924491;28;20722;-83
2022/01/27 04:47:22;;;;;;;34.33;17.80;;;;;;;4.36;57.30;99987.72;6923458;28;20213;-83
2022/01/27 04:50:45;;;;;;;35.40;18.87;;;;;;;4.65;57.34;100009.13;6924185;28;20223;-83
2022/01/27 04:54:12;;;;;;;35.80;19.07;;;;;;;4.66;57.37;100024.19;6924854;28;20204;-83
2022/01/27 04:57:36;;;;;;;32.30;18.60;;;;;;;4.50;57.63;100026.53;6924508;28;20580;-84
2022/01/27 05:01:00;;;;;;;27.93;17.70;;;;;;;4.23;57.44;99933.75;6924260;28;20231;-82
2022/01/27 05:04:25;;;;;;;33.60;17.93;;;;;;;4.96;56.81;100005.34;6923852;28;20805;-83
2022/01/27 05:07:54;;;;;;;32.63;17.57;;;;;;;4.76;56.06;99940.38;6924264;28;20208;-83
2022/01/27 05:11:23;;;;;;;33.60;17.63;;;;;;;4.77;56.48;100003.50;6924471;28;20243;-85
2022/01/27 05:14:44;;;;;;;37.63;18.40;;;;;;;4.49;56.60;99947.41;6925504;28;20280;-83
2022/01/27 05:18:06;;;;;;;33.33;18.17;;;;;;;4.41;58.08;100022.00;6938372;28;20276;-84
2022/01/27 05:21:27;;;;;;;33.10;18.57;;;;;;;4.75;57.34;99991.28;6942903;28;20228;-84
2022/01/27 05:24:51;;;;;;;33.10;18.70;;;;;;;4.58;57.13;99973.25;6926136;28;20232;-83
2022/01/27 05:28:12;;;;;;;36.00;18.37;;;;;;;5.19;56.07;99985.38;6921045;28;20212;-83
2022/01/27 05:31:34;;;;;;;31.73;17.03;;;;;;;4.78;56.25;99961.63;6919871;28;20723;-84
2022/01/27 05:34:55;;;;;;;35.27;18.80;;;;;;;5.23;55.91;99990.28;6927869;28;20671;-84
2022/01/27 05:38:17;;;;;;;34.90;18.60;;;;;;;5.19;55.65;99988.03;6945479;28;20626;-86
2022/01/27 05:41:40;;;;;;;34.07;18.77;;;;;;;5.15;55.57;99966.09;6945254;28;20311;-84
2022/01/27 05:45:02;;;;;;;31.80;17.63;;;;;;;4.34;57.03;99936.28;6946317;28;20259;-85
2022/01/27 05:48:23;;;;;;;29.90;16.47;;;;;;;4.57;55.76;99899.47;6949159;28;20260;-83
2022/01/27 05:51:45;;;;;;;36.93;18.83;;;;;;;4.90;56.48;100021.94;6947885;28;20234;-83
2022/01/27 05:55:10;;;;;;;36.43;18.40;;;;;;;4.60;56.43;99958.78;6946887;28;20231;-84
2022/01/27 05:58:33;;;;;;;35.30;18.33;;;;;;;4.83;56.71;100015.47;6934295;28;20206;-84
2022/01/27 06:01:55;;;;;;;33.00;19.33;;;;;;;5.22;56.18;100012.66;6943165;28;20597;-84
2022/01/27 06:05:17;;;;;;;37.97;19.47;;;;;;;5.21;55.50;99984.25;6935803;28;20230;-84
2022/01/27 06:08:38;;;;;;;37.50;18.57;;;;;;;4.74;55.73;99915.66;6944692;28;20208;-84
2022/01/27 06:12:00;;;;;;;34.40;19.03;;;;;;;4.46;55.88;99911.16;6952129;28;20314;-83
2022/01/27 06:15:24;;;;;;;37.53;19.30;;;;;;;4.76;56.02;99969.78;6949205;28;20194;-84
2022/01/27 06:18:46;;;;;;;35.90;19.53;;;;;;;4.79;56.34;100000.72;6923293;28;20216;-84
2022/01/27 06:22:11;;;;;;;36.53;20.03;;;;;;;4.95;56.32;99990.31;6917302;28;20224;-84
2022/01/27 06:25:33;;;;;;;45.40;22.20;;;;;;;4.72;55.75;99952.31;6917791;28;20727;-85
2022/01/27 06:28:54;;;;;;;37.67;20.10;;;;;;;4.22;56.44;99934.72;6917275;28;20237;-84
2022/01/27 06:32:17;;;;;;;37.10;18.90;;;;;;;4.37;56.12;99897.78;6916458;28;20606;-84
2022/01/27 06:35:39;;;;;;;36.33;18.80;;;;;;;4.89;55.88;100009.59;6916708;28;20205;-83
2022/01/27 06:39:01;;;;;;;32.00;18.57;;;;;;;4.22;56.47;99988.09;6917055;28;20254;-84
2022/01/27 06:42:22;;;;;;;32.63;18.23;;;;;;;4.33;56.29;99979.13;6916422;28;20306;-84
2022/01/27 06:45:44;;;;;;;32.60;17.67;;;;;;;4.40;56.01;99974.91;6918783;28;20236;-84
2022/01/27 06:49:07;;;;;;;34.47;19.07;;;;;;;4.77;55.67;99986.66;6940939;28;20723;-85
2022/01/27 06:52:29;;;;;;;32.03;17.47;;;;;;;4.84;54.92;99993.94;6944104;28;20306;-84
2022/01/27 06:55:51;;;;;;;31.40;17.60;;;;;;;5.16;54.47;100010.56;6949591;28;20231;-87
2022/01/27 06:59:13;;;;;;;36.00;18.33;;;;;;;4.90;54.95;100033.47;6953757;28;20199;-88
2022/01/27 07:02:35;;;;;;;35.83;19.07;;;;;;;4.52;55.85;100014.72;6958351;28;20233;-87
2022/01/27 07:05:58;;;;;;;32.87;19.47;;;;;;;4.78;56.25;100033.75;6953060;28;20231;-89
2022/01/27 07:09:19;;;;;;;32.80;19.13;;;;;;;4.92;55.86;99991.44;6953165;28;20219;-89
2022/01/27 07:12:41;;;;;;;42.53;21.20;;;;;;;4.67;56.27;100023.19;6958233;28;20239;-88
2022/01/27 07:16:03;;;;;;;39.17;21.37;;;;;;;4.69;56.44;100032.75;6956343;28;20210;-87
2022/01/27 07:19:28;;;;;;;34.13;19.63;;;;;;;4.60;57.02;100041.59;6960288;28;20215;-88
2022/01/27 07:22:51;;;;;;;37.17;21.23;;;;;;;4.77;56.31;100008.03;6942605;28;20209;-87
2022/01/27 07:26:16;;;;;;;41.90;20.30;;;;;;;4.51;56.82;100034.41;6930260;28;20718;-87
2022/01/27 07:29:38;;;;;;;43.43;21.03;;;;;;;4.63;57.23;100043.13;6924752;28;20219;-92
2022/01/27 07:33:02;;;;;;;47.07;22.20;;;;;;;3.65;57.64;99915.06;6952089;28;20369;-87
2022/01/27 07:36:24;;;;;;;42.50;23.47;;;;;;;4.68;56.45;100054.25;6946491;28;20213;-87
2022/01/27 07:39:47;;;;;;;48.10;22.77;;;;;;;4.28;56.60;100058.78;6948737;28;20210;-86
2022/01/27 07:43:11;;;;;;;35.97;19.07;;;;;;;4.02;57.19;100069.06;6948756;28;20227;-86
2022/01/27 07:46:33;;;;;;;42.67;21.60;;;;;;;3.62;57.65;100001.50;6940669;28;20231;-86
2022/01/27 07:49:55;;;;;;;33.97;18.97;;;;;;;3.87;56.34;99998.38;6951554;28;20211;-86
2022/01/27 07:53:17;;;;;;;39.23;19.03;;;;;;;4.15;56.04;100002.13;6945218;28;20375;-86
2022/01/27 07:56:40;;;;;;;41.13;20.67;;;;;;;3.95;56.00;100003.88;6949229;28;20228;-86
2022/01/27 08:00:01;;;;;;;39.97;19.53;;;;;;;3.83;56.68;100010.28;6953174;28;20204;-86
2022/01/27 08:03:23;;;;;;;37.70;20.30;;;;;;;4.25;57.29;100053.72;6948657;28;20221;-87
2022/01/27 08:06:44;;;;;;;35.83;19.27;;;;;;;3.78;58.01;100020.50;6948802;28;20240;-86
2022/01/27 08:10:07;;;;;;;36.37;18.90;;;;;;;3.70;56.41;99976.81;6951821;28;20564;-85
2022/01/27 08:13:42;;;;;;;;;;;;;;;;;;;;;
2022/01/27 08:17:46;;;;;;;36.90;18.33;;;;;;;4.07;56.70;100074.84;6954705;28;20233;-86
2022/01/27 08:21:16;;;;;;;38.07;17.90;;;;;;;3.09;59.00;100025.69;6890371;28;20336;-86
2022/01/27 08:24:55;;;;;;;36.63;17.50;;;;;;;3.97;56.73;100089.13;6890883;28;20229;-86
2022/01/27 08:28:28;;;;;;;40.37;19.97;;;;;;;3.49;57.28;99994.69;6894324;28;20211;-88
2022/01/27 08:32:05;;;;;;;42.90;20.23;;;;;;;3.48;57.70;100016.97;6892214;28;20769;-88
2022/01/27 08:35:32;;;;;;;33.83;18.20;;;;;;;3.54;56.81;99987.97;6867540;28;20217;-87
2022/01/27 08:39:23;;;;;;;39.93;19.03;;;;;;;2.76;57.45;99917.47;6892517;28;20234;-88
2022/01/27 08:42:53;;;;;;;33.37;18.63;;;;;;;4.02;56.62;100030.88;6882944;28;20252;-88
2022/01/27 08:46:15;;;;;;;36.93;19.53;;;;;;;4.15;56.26;100063.50;6888066;28;20236;-88
2022/01/27 08:49:38;;;;;;;40.43;18.93;;;;;;;3.60;57.44;100021.25;6883287;28;20686;-87
2022/01/27 08:52:59;;;;;;;39.70;19.90;;;;;;;4.28;56.44;100069.44;6885335;28;20294;-88
2022/01/27 08:56:22;;;;;;;42.97;20.23;;;;;;;3.73;56.56;99990.72;6920406;28;20207;-88
2022/01/27 08:59:43;;;;;;;45.43;20.67;;;;;;;4.09;56.51;100018.69;6948440;28;20210;-87
2022/01/27 09:03:05;;;;;;;38.87;17.87;;;;;;;3.81;57.27;100070.06;6950892;28;20235;-87
2022/01/27 09:06:28;;;;;;;42.07;19.43;;;;;;;3.47;57.68;100049.91;6974264;28;20223;-85
2022/01/27 09:09:50;;;;;;;42.63;18.40;;;;;;;3.81;57.07;100065.59;6968808;28;20207;-84
2022/01/27 09:13:12;;;;;;;37.23;18.13;;;;;;;4.39;56.59;100072.88;6975350;28;20225;-84
2022/01/27 09:16:35;;;;;;;42.43;19.87;;;;;;;4.89;55.23;100061.19;6975669;28;20191;-84
2022/01/27 09:19:57;;;;;;;38.77;18.90;;;;;;;4.52;56.05;100073.47;6972138;28;20233;-87
2022/01/27 09:23:20;;;;;;;37.60;18.37;;;;;;;4.49;55.33;99996.28;6971936;28;20232;-87
2022/01/27 09:26:51;;;;;;;35.93;17.13;;;;;;;4.78;53.87;99999.84;6970622;28;20218;-87
2022/01/27 09:30:19;;;;;;;34.93;17.03;;;;;;;4.82;53.63;100016.44;6922913;28;20664;-86
2022/01/27 09:33:40;;;;;;;34.27;15.97;;;;;;;4.09;53.89;99907.47;6920714;28;20208;-87
2022/01/27 09:37:07;;;;;;;31.07;15.80;;;;;;;3.99;53.96;99898.56;6921548;28;20210;-87
2022/01/27 09:40:40;;;;;;;30.53;15.63;;;;;;;5.53;53.24;100048.94;6934261;28;20208;-88
2022/01/27 09:44:08;;;;;;;29.33;16.13;;;;;;;5.47;52.31;100021.91;6945186;28;20212;-88
2022/01/27 09:47:32;;;;;;;25.93;14.63;;;;;;;5.27;52.94;100055.00;6946524;28;20249;-87
2022/01/27 09:51:22;;;;;;;30.20;15.57;;;;;;;5.16;53.22;100047.97;6948735;28;20476;-88
2022/01/27 09:54:44;;;;;;;28.13;14.30;;;;;;;5.32;53.26;99975.22;6946313;28;20201;-88
2022/01/27 09:58:08;;;;;;;24.90;13.73;;;;;;;6.19;51.74;100047.09;6924129;28;20206;-88
2022/01/27 10:01:30;;;;;;;30.63;16.63;;;;;;;5.49;51.78;99951.22;6918671;28;20228;-88
2022/01/27 10:04:53;;;;;;;28.40;15.40;;;;;;;5.71;51.62;99956.22;6918486;28;20578;-88
2022/01/27 10:08:18;;;;;;;27.03;14.97;;;;;;;5.63;52.38;100001.59;6940107;28;20703;-87
2022/01/27 10:11:40;;;;;;;20.90;13.03;;;;;;;5.69;52.87;100018.91;6950933;28;20236;-87
2022/01/27 10:15:06;;;;;;;21.23;13.27;;;;;;;5.83;52.87;100005.09;6952584;28;20210;-86
2022/01/27 10:18:35;;;;;;;24.60;14.10;;;;;;;5.42;53.97;100018.84;6941440;28;20237;-85
2022/01/27 10:22:01;;;;;;;24.17;13.23;;;;;;;5.62;52.88;99942.88;6952465;28;20217;-87
2022/01/27 10:25:34;;;;;;;24.83;12.70;;;;;;;5.77;52.57;99966.34;6953329;28;20224;-86
2022/01/27 10:29:02;;;;;;;21.93;13.07;;;;;;;6.27;52.66;99983.78;6954337;28;20288;-85
2022/01/27 10:32:37;;;;;;;28.90;13.40;;;;;;;6.03;52.89;99937.09;6957110;28;20264;-85
2022/01/27 10:36:14;;;;;;;21.07;12.43;;;;;;;6.64;51.33;99963.06;6954338;28;20210;-84
2022/01/27 10:39:36;;;;;;;24.87;13.50;;;;;;;6.37;51.41;99933.66;6951992;28;20216;-86
2022/01/27 10:43:04;;;;;;;25.77;13.90;;;;;;;6.60;54.41;99995.69;6952742;28;20224;-89
2022/01/27 10:46:29;;;;;;;21.37;13.20;;;;;;;6.62;53.38;99969.59;6953171;28;20236;-87
2022/01/27 10:49:57;;;;;;;22.37;13.40;;;;;;;6.68;54.29;99921.59;6957163;28;20202;-85
2022/01/27 10:53:20;;;;;;;23.83;13.57;;;;;;;7.56;51.82;99988.50;6952972;28;20219;-88
2022/01/27 10:56:42;;;;;;;20.23;12.77;;;;;;;6.93;51.18;99925.31;6953014;28;20202;-86
2022/01/27 11:00:15;;;;;;;25.73;13.70;;;;;;;7.48;51.63;99956.25;6954434;28;20205;-89
2022/01/27 11:03:37;;;;;;;21.83;12.87;;;;;;;7.29;52.84;99878.63;6950044;28;20218;-89
2022/01/27 11:07:02;;;;;;;19.90;11.87;;;;;;;7.59;51.47;99970.25;6951583;28;20602;-88
2022/01/27 11:10:23;;;;;;;20.63;11.93;;;;;;;7.44;50.53;99928.03;6947454;28;20202;-87
2022/01/27 11:13:46;;;;;;;17.90;11.27;;;;;;;7.84;49.56;99964.00;6949903;28;20585;-84
2022/01/27 11:17:10;;;;;;;20.87;12.17;;;;;;;7.72;49.97;99935.75;6948843;28;20207;-85
2022/01/27 11:20:38;;;;;;;23.63;12.23;;;;;;;6.88;51.16;99882.03;6950752;28;20221;-83
2022/01/27 11:24:14;;;;;;;20.57;12.47;;;;;;;6.95;51.66;99918.78;6942135;28;20208;-88
2022/01/27 11:27:38;;;;;;;27.63;13.53;;;;;;;7.38;51.27;99947.47;6940649;28;20241;-86
2022/01/27 11:31:11;;;;;;;25.17;12.90;;;;;;;6.69;52.40;99909.88;6955722;28;20223;-89
2022/01/27 11:34:48;;;;;;;20.90;12.33;;;;;;;6.60;52.40;99883.97;6955142;28;20206;-84
2022/01/27 11:38:11;;;;;;;20.20;13.17;;;;;;;6.85;52.88;99906.47;6968229;28;20209;-86
2022/01/27 11:41:48;;;;;;;19.90;12.20;;;;;;;7.21;53.03;99932.25;6957197;28;20214;-89
2022/01/27 11:45:42;;;;;;;18.80;12.43;;;;;;;7.53;52.03;99932.44;6940052;28;20247;-87
2022/01/27 11:49:04;;;;;;;21.20;12.27;;;;;;;6.99;51.94;99855.84;6955740;28;20198;-83
2022/01/27 11:52:30;;;;;;;21.00;13.03;;;;;;;7.06;51.43;99826.53;6955304;28;20226;-83
2022/01/27 11:55:52;;;;;;;19.93;11.80;;;;;;;6.43;54.41;99929.53;6954292;28;20211;-88
2022/01/27 11:59:15;;;;;;;21.73;13.27;;;;;;;6.43;54.01;99860.72;6964800;28;20205;-87
2022/01/27 12:03:12;;;;;;;20.07;12.70;;;;;;;7.41;52.92;99917.59;6951696;28;20225;-87
2022/01/27 12:06:52;;;;;;;24.27;13.73;;;;;;;7.35;52.50;99881.53;6940447;28;20223;-86
2022/01/27 12:10:41;;;;;;;23.80;13.73;;;;;;;6.92;52.85;99872.69;6954707;28;20203;-89
2022/01/27 12:14:06;;;;;;;23.40;14.10;;;;;;;7.39;52.47;99890.13;6958211;28;20191;-90
2022/01/27 12:17:34;;;;;;;20.23;13.13;;;;;;;7.02;52.38;99846.63;6960931;28;20201;-88
2022/01/27 12:20:56;;;;;;;23.20;13.97;;;;;;;6.83;52.53;99820.84;6957931;28;20236;-87
2022/01/27 12:24:22;;;;;;;20.97;12.53;;;;;;;6.53;52.56;99832.00;6963364;28;20247;-86
2022/01/27 12:27:53;;;;;;;24.20;14.53;;;;;;;6.76;52.04;99838.56;6955761;28;20229;-86
2022/01/27 12:31:15;;;;;;;20.30;13.00;;;;;;;6.23;53.44;99827.06;6955057;28;20236;-89
2022/01/27 12:34:39;;;;;;;23.50;13.80;;;;;;;5.53;53.64;99780.59;6952703;28;20215;-87
2022/01/27 12:38:01;;;;;;;21.10;14.47;;;;;;;5.76;53.83;99805.94;6953671;28;20354;-88
2022/01/27 12:41:28;;;;;;;21.40;13.83;;;;;;;6.16;54.46;99873.31;6952520;28;20585;-89
2022/01/27 12:44:55;;;;;;;23.07;14.33;;;;;;;5.88;53.59;99769.97;6953275;28;20208;-89
2022/01/27 12:48:26;;;;;;;23.53;14.27;;;;;;;5.81;53.48;99718.06;6934815;28;20215;-89
2022/01/27 12:51:52;;;;;;;21.77;13.77;;;;;;;6.33;52.60;99794.84;6951909;28;20232;-90
2022/01/27 12:55:15;;;;;;;21.17;12.43;;;;;;;6.35;52.08;99769.59;6951261;28;20205;-87
2022/01/27 12:58:38;;;;;;;21.40;14.27;;;;;;;6.42;52.73;99788.56;6951314;28;20209;-86
2022/01/27 13:02:02;;;;;;;20.67;13.33;;;;;;;6.66;52.26;99792.25;6951550;28;20220;-88
2022/01/27 13:05:24;;;;;;;20.10;13.50;;;;;;;6.87;51.93;99783.84;6954152;28;20225;-86
2022/01/27 13:08:52;;;;;;;23.10;13.33;;;;;;;6.88;51.74;99807.84;6945054;28;20199;-89
2022/01/27 13:12:25;;;;;;;22.97;13.47;;;;;;;6.28;52.00;99727.50;6931451;28;20225;-87
2022/01/27 13:16:01;;;;;;;24.07;13.70;;;;;;;6.16;51.44;99684.09;6948668;28;20237;-88
2022/01/27 13:19:45;;;;;;;21.57;14.07;;;;;;;6.97;51.81;99838.22;6928591;28;20286;-87
2022/01/27 13:23:25;;;;;;;26.87;14.43;;;;;;;6.61;51.33;99738.28;6932957;28;20228;-89
2022/01/27 13:26:55;;;;;;;22.80;13.50;;;;;;;6.76;51.55;99786.78;6954427;28;20233;-88
2022/01/27 13:30:18;;;;;;;22.80;13.80;;;;;;;6.47;51.68;99724.63;6943385;28;20200;-87
2022/01/27 13:34:05;;;;;;;23.27;13.33;;;;;;;6.28;51.84;99690.03;6958283;28;20206;-91
2022/01/27 13:37:46;;;;;;;25.83;14.20;;;;;;;6.03;51.73;99631.94;6954950;28;20215;-88
2022/01/27 13:41:27;;;;;;;20.27;13.37;;;;;;;6.37;51.58;99665.81;6948035;28;20236;-90
2022/01/27 13:45:16;;;;;;;23.20;14.07;;;;;;;6.62;51.77;99731.09;6951065;28;20214;-87
2022/01/27 13:48:43;;;;;;;22.80;14.27;;;;;;;6.71;51.17;99708.75;6953387;28;20228;-87
2022/01/27 13:52:11;;;;;;;23.03;14.17;;;;;;;6.72;52.22;99747.94;6953978;28;20224;-85
2022/01/27 13:55:37;;;;;;;20.73;13.93;;;;;;;6.65;52.20;99730.78;6954022;28;20297;-84
2022/01/27 13:59:14;;;;;;;27.00;13.67;;;;;;;6.85;51.87;99738.44;6958269;28;20198;-88
2022/01/27 14:02:40;;;;;;;20.23;14.17;;;;;;;7.02;50.83;99701.84;6951915;28;20272;-90
2022/01/27 14:06:05;;;;;;;21.67;13.63;;;;;;;6.73;51.01;99655.81;6948517;28;20230;-88
2022/01/27 14:09:51;;;;;;;22.13;13.67;;;;;;;7.29;50.80;99718.56;6955346;28;20207;-89
2022/01/27 14:14:10;;;;;;;21.23;13.07;;;;;;;7.84;50.25;99737.66;6954561;28;20237;-90
2022/01/27 14:17:38;;;;;;;22.17;13.53;;;;;;;7.45;49.90;99689.09;6953826;28;20205;-90
2022/01/27 14:21:02;;;;;;;20.67;13.20;;;;;;;7.91;49.94;99719.88;6951465;28;20281;-89
2022/01/27 14:24:26;;;;;;;21.07;13.00;;;;;;;7.51;50.74;99717.97;6948840;28;20199;-88
2022/01/27 14:27:48;;;;;;;24.57;13.17;;;;;;;7.86;50.42;99749.91;6950775;28;20232;-87
2022/01/27 14:31:23;;;;;;;24.00;13.57;;;;;;;8.35;50.08;99770.47;6951801;28;20237;-88
2022/01/27 14:34:51;;;;;;;22.43;12.37;;;;;;;8.23;50.38;99741.41;6946459;28;20204;-92
2022/01/27 14:38:17;;;;;;;16.67;10.47;;;;;;;8.11;50.35;99731.97;6955024;28;20721;-89
2022/01/27 14:41:42;;;;;;;18.00;11.13;;;;;;;8.03;50.07;99678.25;6952160;28;20217;-89
2022/01/27 14:45:05;;;;;;;17.33;11.60;;;;;;;7.74;50.62;99670.72;6951735;28;20226;-90
2022/01/27 14:48:30;;;;;;;16.20;11.67;;;;;;;8.26;50.13;99688.19;6952799;28;20233;-87
2022/01/27 14:51:56;;;;;;;18.13;11.47;;;;;;;8.09;49.81;99635.47;6949059;28;20723;-89
2022/01/27 14:55:21;;;;;;;18.07;11.67;;;;;;;8.45;49.99;99714.72;6947051;28;20560;-93
2022/01/27 14:58:43;;;;;;;21.87;12.13;;;;;;;8.61;49.78;99695.03;6945145;28;20213;-92
2022/01/27 15:02:05;;;;;;;17.73;12.30;;;;;;;8.71;49.59;99693.00;6945789;28;20226;-92
2022/01/27 15:05:29;;;;;;;14.00;9.37;;;;;;;8.74;49.26;99677.38;6945171;28;20774;-92
2022/01/27 15:08:54;;;;;;;13.27;9.03;;;;;;;8.14;50.54;99669.88;6948502;28;20205;-92
2022/01/27 15:12:16;;;;;;;15.53;9.37;;;;;;;7.88;51.57;99632.44;6951512;28;20231;-92
2022/01/27 15:19:34;;;;;;;16.90;9.70;;;;;;;8.33;50.84;99651.59;6961467;28;20625;-92
2022/01/27 15:22:55;;;;;;;16.83;9.53;;;;;;;8.30;50.97;99633.09;6938163;28;20251;-93
2022/01/27 15:26:18;;;;;;;14.80;8.80;;;;;;;8.57;50.32;99674.88;6954296;28;20225;-92
2022/01/27 15:29:41;;;;;;;15.80;9.43;;;;;;;8.98;50.30;99699.63;6956870;28;20567;-92
2022/01/27 15:33:04;;;;;;;14.73;9.03;;;;;;;8.97;49.74;99651.41;6956623;28;20229;-91
2022/01/27 15:36:25;;;;;;;15.77;9.20;;;;;;;9.62;49.56;99728.13;6948614;28;20235;-91
2022/01/27 15:39:51;;;;;;;12.43;9.30;;;;;;;9.38;50.49;99726.38;6947298;28;20206;-94
2022/01/27 15:43:14;;;;;;;14.47;9.70;;;;;;;9.48;50.67;99729.69;6947056;28;20229;-95
2022/01/27 15:46:36;;;;;;;13.03;9.03;;;;;;;8.77;51.02;99638.56;6973000;28;20223;-93
2022/01/27 15:49:58;;;;;;;17.10;9.67;;;;;;;8.28;53.83;99698.75;6955202;28;20202;-94
2022/01/27 15:53:20;;;;;;;14.77;9.03;;;;;;;8.06;54.44;99728.94;6947123;28;20226;-91
2022/01/27 15:56:42;;;;;;;12.80;9.47;;;;;;;8.43;53.74;99695.22;6958192;28;20203;-93
2022/01/27 16:00:08;;;;;;;15.20;10.10;;;;;;;8.48;54.38;99753.84;6962080;28;20200;-93
2022/01/27 16:03:30;;;;;;;15.13;9.27;;;;;;;8.23;55.32;99710.03;6962681;28;20763;-93
2022/01/27 16:10:29;;;;;;;16.73;11.13;;;;;;;7.95;56.29;99625.41;6882404;26;20212;-77
2022/01/27 16:13:57;;;;;;;16.60;11.20;;;;;;;8.49;56.60;99756.34;6909374;28;20213;-78
2022/01/27 16:17:21;;;;;;;17.63;11.07;;;;;;;8.54;57.03;99755.88;6898706;28;20556;-78
2022/01/27 16:20:43;;;;;;;19.07;10.47;;;;;;;8.24;58.09;99749.31;6902134;28;20558;-78
2022/01/27 16:24:06;;;;;;;17.23;10.57;;;;;;;6.75;61.24;99669.88;6901844;28;20205;-77
2022/01/27 16:27:27;;;;;;;17.50;11.10;;;;;;;6.57;61.65;99603.00;6901192;28;20228;-77
2022/01/27 16:30:49;;;;;;;18.90;12.27;;;;;;;7.21;60.89;99683.66;6900055;28;20208;-78
2022/01/27 16:34:12;;;;;;;18.87;11.70;;;;;;;8.02;60.19;99760.66;6900812;28;20214;-78
2022/01/27 16:37:34;;;;;;;17.30;10.33;;;;;;;7.39;59.75;99613.78;6900500;28;20700;-86
2022/01/27 16:40:59;;;;;;;19.03;12.13;;;;;;;7.83;59.71;99722.56;6891729;28;20213;-87
2022/01/27 16:44:22;;;;;;;18.67;11.43;;;;;;;8.30;59.60;99770.13;6872681;28;20207;-88
2022/01/27 16:47:45;;;;;;;18.40;11.37;;;;;;;7.26;61.34;99683.16;6873386;28;20233;-82
2022/01/27 16:51:08;;;;;;;17.13;11.93;;;;;;;7.09;61.42;99601.00;6872268;28;20212;-82
2022/01/27 16:54:30;;;;;;;17.03;12.03;;;;;;;7.50;60.79;99659.09;6870532;28;20222;-86
2022/01/27 16:57:52;;;;;;;17.53;11.07;;;;;;;7.07;61.54;99630.66;6873115;28;20219;-86
2022/01/27 17:01:14;;;;;;;21.07;12.43;;;;;;;7.97;60.40;99698.59;6873678;28;20672;-86
2022/01/27 17:04:36;;;;;;;18.80;11.77;;;;;;;7.77;61.43;99750.88;6873067;28;20577;-83
2022/01/27 17:07:59;;;;;;;19.17;11.77;;;;;;;7.27;61.29;99669.59;6872909;28;20244;-84
2022/01/27 17:11:21;;;;;;;19.90;12.53;;;;;;;7.39;61.50;99636.09;6875146;28;20301;-83
2022/01/27 17:14:43;;;;;;;21.87;13.40;;;;;;;8.01;61.15;99766.22;6874587;28;20222;-82
2022/01/27 17:18:07;;;;;;;21.23;13.37;;;;;;;7.85;62.78;99774.22;6871190;28;20208;-83
2022/01/27 17:21:29;;;;;;;26.97;13.93;;;;;;;7.29;62.59;99659.53;6872637;28;20209;-82
2022/01/27 17:24:52;;;;;;;45.20;23.87;;;;;;;7.53;62.64;99691.78;6863883;28;20322;-78
2022/01/27 17:28:14;;;;;;;45.30;24.93;;;;;;;8.08;61.71;99725.09;6857333;28;20240;-77
2022/01/27 17:31:36;;;;;;;32.80;19.47;;;;;;;7.37;61.93;99690.91;6866059;28;20258;-78
2022/01/27 17:34:58;;;;;;;32.27;21.17;;;;;;;7.44;61.51;99609.63;6858957;28;20199;-78
2022/01/27 17:38:20;;;;;;;25.20;16.33;;;;;;;8.21;60.44;99690.56;6872420;28;20217;-78
2022/01/27 17:41:43;;;;;;;29.23;15.87;;;;;;;8.65;59.50;99745.59;6871896;28;20227;-78
2022/01/27 17:45:05;;;;;;;21.63;14.17;;;;;;;8.17;59.68;99656.94;6871438;28;20209;-77
2022/01/27 17:48:27;;;;;;;23.13;13.97;;;;;;;7.74;59.75;99603.59;6871955;28;20237;-76
2022/01/27 17:51:49;;;;;;;25.27;14.07;;;;;;;7.76;60.89;99644.53;6894417;28;20337;-77
2022/01/27 17:55:11;;;;;;;22.30;14.00;;;;;;;7.69;61.26;99662.31;6897920;28;20210;-77
2022/01/27 17:58:34;;;;;;;24.90;14.40;;;;;;;8.03;62.66;99767.75;6898418;28;20206;-77
2022/01/27 18:01:56;;;;;;;26.10;14.27;;;;;;;8.13;61.41;99685.13;6892984;28;20219;-78
2022/01/27 18:05:18;;;;;;;25.40;16.23;;;;;;;8.33;60.39;99699.94;6871584;28;20199;-79
2022/01/27 18:08:42;;;;;;;22.07;13.47;;;;;;;7.01;62.48;99663.47;6870883;28;20227;-78
2022/01/27 18:12:04;;;;;;;24.53;15.67;;;;;;;7.60;62.56;99667.84;6871390;28;20225;-78
2022/01/27 18:15:28;;;;;;;35.47;19.87;;;;;;;7.61;61.42;99594.38;6868936;28;20339;-78
2022/01/27 18:18:50;;;;;;;25.23;15.37;;;;;;;7.81;60.69;99636.81;6849051;28;20653;-78
2022/01/27 18:22:12;;;;;;;24.20;14.57;;;;;;;8.19;62.19;99735.50;6856747;28;20564;-77
2022/01/27 18:25:34;;;;;;;26.47;15.80;;;;;;;7.85;61.51;99648.06;6897424;28;20210;-77
2022/01/27 18:28:56;;;;;;;22.60;15.03;;;;;;;8.29;62.06;99746.09;6897229;28;20225;-78
2022/01/27 18:32:19;;;;;;;20.60;14.27;;;;;;;7.72;62.39;99626.25;6897619;28;20202;-77
2022/01/27 18:35:40;;;;;;;23.03;14.03;;;;;;;8.17;63.13;99756.31;6889688;28;20218;-77
2022/01/27 18:39:03;;;;;;;26.93;18.40;;;;;;;8.30;61.17;99727.16;6856961;28;20203;-78
2022/01/27 18:42:24;;;;;;;25.10;15.43;;;;;;;7.93;63.10;99752.75;6856917;28;20223;-78
2022/01/27 18:45:46;;;;;;;22.30;14.00;;;;;;;8.14;62.95;99704.78;6845854;28;20648;-78
2022/01/27 18:49:10;;;;;;;20.17;13.50;;;;;;;7.85;64.51;99748.22;6844306;28;20229;-78
2022/01/27 18:52:32;;;;;;;21.93;12.60;;;;;;;7.78;64.30;99741.00;6843449;28;20206;-78
2022/01/27 18:55:54;;;;;;;17.70;12.17;;;;;;;7.80;64.55;99758.63;6843382;28;20566;-79
2022/01/27 18:59:16;;;;;;;21.50;13.90;;;;;;;7.65;64.09;99705.72;6842591;28;20218;-78
2022/01/27 19:02:37;;;;;;;25.03;15.50;;;;;;;7.60;63.83;99708.09;6842788;28;20685;-78
2022/01/27 19:06:01;;;;;;;24.33;15.97;;;;;;;7.11;64.47;99632.00;6843646;28;20679;-78
2022/01/27 19:09:23;;;;;;;27.73;14.37;;;;;;;7.78;64.23;99744.50;6843598;28;20611;-78
2022/01/27 19:12:45;;;;;;;21.37;13.83;;;;;;;6.74;65.02;99604.75;6843549;28;20221;-78
2022/01/27 19:16:07;;;;;;;19.27;12.13;;;;;;;7.90;64.93;99769.22;6843372;28;20218;-79
2022/01/27 19:19:29;;;;;;;25.70;15.93;;;;;;;7.82;65.00;99761.97;6843524;28;20209;-79
2022/01/27 19:22:53;;;;;;;26.87;15.83;;;;;;;7.96;64.44;99747.91;6844468;28;20226;-78
2022/01/27 19:26:15;;;;;;;28.53;16.67;;;;;;;8.14;64.34;99758.50;6844839;28;20218;-79
2022/01/27 19:29:42;;;;;;;25.03;16.07;;;;;;;7.88;65.28;99768.53;6843297;28;20258;-79
2022/01/27 19:33:04;;;;;;;26.50;14.73;;;;;;;7.27;64.78;99666.06;6843473;28;20663;-79
2022/01/27 19:36:26;;;;;;;26.63;15.17;;;;;;;8.44;64.25;99761.38;6842926;28;20566;-79
2022/01/27 19:39:49;;;;;;;26.67;16.47;;;;;;;7.67;64.16;99656.25;6844363;28;20420;-78
2022/01/27 19:43:11;;;;;;;24.77;15.37;;;;;;;7.55;64.05;99662.94;6848522;28;20245;-78
2022/01/27 19:46:32;;;;;;;33.80;15.80;;;;;;;8.02;64.82;99775.94;6848426;28;20208;-78
2022/01/27 19:49:55;;;;;;;25.60;15.70;;;;;;;7.96;64.87;99758.63;6848291;28;20460;-78
2022/01/27 19:53:17;;;;;;;24.10;14.50;;;;;;;8.37;64.50;99795.31;6847913;28;20209;-78
2022/01/27 19:56:41;;;;;;;28.17;16.93;;;;;;;8.12;64.81;99782.84;6847749;28;20213;-78
2022/01/27 20:00:04;;;;;;;24.30;15.53;;;;;;;7.27;64.45;99589.16;6848610;28;20239;-78
2022/01/27 20:03:26;;;;;;;24.30;15.63;;;;;;;7.57;63.66;99609.97;6847853;28;20216;-79
2022/01/27 20:07:01;;;;;;;26.20;15.00;;;;;;;8.12;63.73;99675.41;6847594;28;20216;-79
2022/01/27 20:10:27;;;;;;;23.57;14.50;;;;;;;8.37;62.91;99695.06;6874150;28;20303;-77
2022/01/27 20:13:50;;;;;;;28.40;16.23;;;;;;;9.20;62.12;99790.34;6867748;28;20209;-78
2022/01/27 20:17:12;;;;;;;27.33;16.43;;;;;;;8.05;64.02;99703.94;6868248;28;20242;-79
2022/01/27 20:20:35;;;;;;;28.43;18.60;;;;;;;7.83;64.87;99723.38;6867067;28;20214;-79
2022/01/27 20:23:57;;;;;;;21.17;14.13;;;;;;;7.77;64.97;99710.63;6860091;28;20198;-79
2022/01/27 20:27:19;;;;;;;24.50;15.27;;;;;;;7.96;64.91;99712.16;6859763;28;20676;-79
2022/01/27 20:30:42;;;;;;;64.57;35.30;;;;;;;8.93;63.60;99811.44;6860603;28;20209;-79
2022/01/27 20:34:04;;;;;;;29.67;16.87;;;;;;;8.81;63.39;99788.59;6852271;28;20213;-79